createdAt,value
2023-04-10T00:04:52.324Z,99.90
2023-04-10T00:11:34.879Z,99.90
2023-04-10T00:18:17.311Z,99.90
2023-04-10T00:24:59.649Z,99.90
2023-04-10T00:31:43.102Z,99.90
2023-04-10T00:38:25.617Z,99.90
2023-04-10T00:45:09.499Z,99.90
2023-04-10T00:51:52.478Z,99.90
2023-04-10T00:58:34.814Z,99.90
2023-04-10T01:05:17.298Z,99.90
2023-04-10T01:12:32.764Z,99.90
2023-04-10T01:20:00.150Z,99.90
2023-04-10T01:27:09.061Z,99.90
2023-04-10T01:33:56.024Z,99.90
2023-04-10T01:40:42.185Z,99.90
2023-04-10T01:47:28.021Z,99.90
2023-04-10T01:54:10.866Z,99.90
2023-04-10T02:00:53.192Z,99.90
2023-04-10T02:07:37.881Z,99.90
2023-04-10T02:14:23.005Z,99.90
2023-04-10T02:21:07.497Z,99.90
2023-04-10T02:27:49.812Z,99.90
2023-04-10T02:34:32.164Z,99.90
2023-04-10T02:41:14.863Z,99.90
2023-04-10T02:47:57.512Z,99.90
2023-04-10T02:54:40.612Z,99.90
2023-04-10T03:01:23.412Z,99.90
2023-04-10T03:08:06.284Z,99.90
2023-04-10T03:14:48.774Z,99.90
2023-04-10T03:21:31.186Z,99.90
2023-04-10T03:28:13.592Z,99.90
2023-04-10T03:34:58.566Z,99.90
2023-04-10T03:41:41.506Z,99.90
2023-04-10T03:48:24.232Z,99.90
2023-04-10T03:55:07.247Z,99.90
2023-04-10T04:01:49.899Z,99.90
2023-04-10T04:08:32.405Z,99.90
2023-04-10T04:15:23.885Z,99.90
2023-04-10T04:22:32.568Z,99.90
2023-04-10T04:29:24.785Z,99.90
2023-04-10T04:36:26.388Z,99.90
2023-04-10T04:43:16.039Z,99.90
2023-04-10T04:50:17.021Z,99.90
2023-04-10T04:57:28.133Z,99.90
2023-04-10T05:04:20.649Z,99.90
2023-04-10T05:11:23.270Z,99.90
2023-04-10T05:18:24.317Z,99.90
2023-04-10T05:25:19.116Z,99.90
2023-04-10T05:32:19.161Z,99.90
2023-04-10T05:39:33.505Z,99.90
2023-04-10T05:46:27.936Z,99.90
2023-04-10T05:53:38.940Z,99.90
2023-04-10T06:00:27.417Z,99.90
2023-04-10T06:07:35.630Z,99.90
2023-04-10T06:14:20.270Z,99.90
2023-04-10T06:21:02.742Z,99.90
2023-04-10T06:27:45.334Z,99.90
2023-04-10T06:34:27.642Z,99.90
2023-04-10T06:41:19.265Z,99.90
2023-04-10T06:48:01.748Z,99.90
2023-04-10T06:54:44.275Z,94.90
2023-04-10T07:01:26.745Z,92.70
2023-04-10T07:08:09.226Z,90.90
2023-04-10T07:14:51.774Z,86.50
2023-04-10T07:21:34.044Z,82.40
2023-04-10T07:28:16.375Z,74.10
2023-04-10T07:34:58.639Z,69.60
2023-04-10T07:41:40.955Z,66.70
2023-04-10T07:48:23.978Z,63.00
2023-04-10T07:55:06.744Z,61.40
2023-04-10T08:01:49.159Z,59.20
2023-04-10T08:08:31.503Z,58.20
2023-04-10T08:15:13.792Z,56.00
2023-04-10T08:21:56.126Z,55.80
2023-04-10T08:28:38.746Z,54.70
2023-04-10T08:35:21.134Z,53.90
2023-04-10T08:42:03.747Z,51.30
2023-04-10T08:49:02.311Z,51.90
2023-04-10T08:55:45.765Z,48.40
2023-04-10T09:02:28.682Z,48.80
2023-04-10T09:09:11.235Z,47.80
2023-04-10T09:15:58.831Z,48.70
2023-04-10T09:22:41.100Z,48.20
2023-04-10T09:29:25.680Z,49.30
2023-04-10T09:36:13.839Z,48.00
2023-04-10T09:42:56.931Z,48.50
2023-04-10T09:49:53.672Z,48.10
2023-04-10T09:56:38.923Z,47.10
2023-04-10T10:03:21.559Z,48.50
2023-04-10T10:10:06.285Z,46.70
2023-04-10T10:16:54.573Z,45.30
2023-04-10T10:23:37.871Z,46.20
2023-04-10T10:37:08.212Z,45.10
2023-04-10T10:44:01.966Z,45.40
2023-04-10T10:50:58.909Z,45.20
2023-04-10T10:57:54.004Z,46.30
2023-04-10T11:04:46.947Z,46.80
2023-04-10T11:11:30.027Z,45.90
2023-04-10T11:18:12.404Z,46.90
2023-04-10T11:24:58.803Z,45.20
2023-04-10T11:31:41.232Z,46.80
2023-04-10T11:38:23.610Z,46.40
2023-04-10T11:45:26.038Z,46.00
2023-04-10T11:52:08.352Z,45.30
2023-04-10T11:58:54.097Z,44.80
2023-04-10T12:05:49.353Z,45.80
2023-04-10T12:12:36.871Z,43.60
2023-04-10T12:19:20.610Z,40.50
2023-04-10T12:26:13.193Z,41.20
2023-04-10T12:32:55.821Z,40.40
2023-04-10T12:39:38.124Z,39.00
2023-04-10T12:46:28.185Z,38.70
2023-04-10T12:53:12.513Z,39.10
2023-04-10T12:59:55.629Z,39.70
2023-04-10T13:06:48.151Z,40.10
2023-04-10T13:13:32.643Z,41.30
2023-04-10T13:20:15.464Z,39.80
2023-04-10T13:27:01.329Z,41.10
2023-04-10T13:33:48.060Z,41.00
2023-04-10T13:40:30.745Z,41.90
2023-04-10T13:47:13.138Z,41.50
2023-04-10T13:53:55.716Z,40.80
2023-04-10T14:00:38.065Z,41.50
2023-04-10T14:07:20.483Z,42.20
2023-04-10T14:14:02.777Z,41.50
2023-04-10T14:20:45.327Z,43.60
2023-04-10T14:27:27.642Z,42.00
2023-04-10T14:34:09.960Z,42.30
2023-04-10T14:40:53.704Z,42.30
2023-04-10T14:47:36.356Z,42.80
2023-04-10T14:54:21.816Z,41.80
2023-04-10T15:01:07.858Z,44.20
2023-04-10T15:07:50.205Z,43.10
2023-04-10T15:14:32.832Z,44.30
2023-04-10T15:21:16.468Z,44.00
2023-04-10T15:28:00.285Z,44.50
2023-04-10T15:34:44.835Z,44.00
2023-04-10T15:41:28.016Z,44.00
2023-04-10T15:48:10.322Z,44.00
2023-04-10T15:54:52.770Z,44.90
2023-04-10T16:01:35.169Z,46.30
2023-04-10T16:08:17.610Z,46.70
2023-04-10T16:15:00.165Z,46.60
2023-04-10T16:21:42.840Z,47.80
2023-04-10T16:28:26.247Z,48.10
2023-04-10T16:35:08.697Z,49.20
2023-04-10T16:41:50.971Z,48.90
2023-04-10T16:48:36.053Z,49.80
2023-04-10T16:55:18.760Z,49.90
2023-04-10T17:02:01.134Z,50.50
2023-04-10T17:08:44.027Z,50.80
2023-04-10T17:15:26.373Z,51.80
2023-04-10T17:22:16.204Z,51.60
2023-04-10T17:28:58.562Z,52.60
2023-04-10T17:35:40.902Z,52.80
2023-04-10T17:42:24.672Z,54.40
2023-04-10T17:49:07.058Z,54.80
2023-04-10T17:55:49.440Z,56.30
2023-04-10T18:02:31.948Z,56.00
2023-04-10T18:09:14.446Z,56.80
2023-04-10T18:15:56.788Z,57.10
2023-04-10T18:22:39.318Z,59.00
2023-04-10T18:29:22.614Z,59.90
2023-04-10T18:36:05.192Z,59.80
2023-04-10T18:42:47.505Z,58.70
2023-04-10T18:49:31.041Z,59.60
2023-04-10T18:56:13.481Z,60.40
2023-04-10T19:02:56.043Z,60.20
2023-04-10T19:09:38.390Z,59.60
2023-04-10T19:16:20.927Z,59.70
2023-04-10T19:23:03.426Z,57.50
2023-04-10T19:29:45.915Z,59.80
2023-04-10T19:36:28.320Z,58.30
2023-04-10T19:43:11.052Z,58.10
2023-04-10T19:49:53.470Z,58.10
2023-04-10T20:05:04.368Z,59.90
2023-04-10T20:11:46.679Z,59.50
2023-04-10T20:18:29.016Z,62.50
2023-04-10T20:25:11.351Z,61.80
2023-04-10T20:31:53.671Z,63.60
2023-04-10T20:38:36.199Z,64.10
2023-04-10T20:45:18.594Z,65.90
2023-04-10T20:52:00.964Z,66.60
2023-04-10T20:58:43.396Z,65.20
2023-04-10T21:05:25.804Z,67.70
2023-04-10T21:12:08.137Z,69.70
2023-04-10T21:18:50.476Z,72.20
2023-04-10T21:25:33.616Z,73.60
2023-04-10T21:32:15.978Z,72.80
2023-04-10T21:38:58.387Z,72.40
2023-04-10T21:45:40.654Z,72.90
2023-04-10T21:52:22.961Z,73.40
2023-04-10T21:59:05.300Z,72.70
2023-04-10T22:05:48.794Z,73.20
2023-04-10T22:12:31.107Z,73.90
2023-04-10T22:19:13.423Z,73.30
2023-04-10T22:25:55.836Z,73.20
2023-04-10T22:32:38.317Z,74.40
2023-04-10T22:39:20.873Z,74.80
2023-04-10T22:46:03.611Z,75.90
2023-04-10T22:52:45.987Z,76.60
2023-04-10T22:59:28.239Z,76.30
2023-04-10T23:06:10.647Z,76.70
2023-04-10T23:12:52.901Z,77.70
2023-04-10T23:19:35.198Z,79.40
2023-04-10T23:26:17.494Z,81.10
2023-04-10T23:32:59.991Z,82.40
2023-04-10T23:39:42.520Z,82.80
2023-04-10T23:46:24.930Z,83.60
2023-04-10T23:53:08.655Z,84.20
2023-04-10T23:59:51.642Z,85.30
